createdAt,value
2023-05-09T00:00:20.288Z,101392.56
2023-05-09T00:02:22.283Z,101398.94
2023-05-09T00:04:25.056Z,101398.94
2023-05-09T00:06:28.448Z,101386.00
2023-05-09T00:08:29.894Z,101387.94
2023-05-09T00:10:31.487Z,101387.06
2023-05-09T00:12:33.023Z,101380.72
2023-05-09T00:14:34.593Z,101377.13
2023-05-09T00:16:36.805Z,101370.75
2023-05-09T00:18:38.261Z,101370.75
2023-05-09T00:20:40.927Z,101364.41
2023-05-09T00:22:42.436Z,101356.97
2023-05-09T00:24:44.010Z,101359.72
2023-05-09T00:26:45.422Z,101351.47
2023-05-09T00:28:46.801Z,101356.97
2023-05-09T00:30:48.202Z,101345.97
2023-05-09T00:32:49.772Z,101348.72
2023-05-09T00:34:51.270Z,101351.47
2023-05-09T00:36:52.668Z,101352.56
2023-05-09T00:38:54.154Z,101350.63
2023-05-09T00:40:56.112Z,101345.13
2023-05-09T00:42:58.938Z,101343.44
2023-05-09T00:45:00.458Z,101340.66
2023-05-09T00:47:01.937Z,101340.66
2023-05-09T00:49:04.426Z,101341.75
2023-05-09T00:51:06.139Z,101330.75
2023-05-09T00:53:08.616Z,101333.50
2023-05-09T00:55:10.528Z,101328.81
2023-05-09T00:57:11.949Z,101318.63
2023-05-09T00:59:13.653Z,101317.78
2023-05-09T01:01:16.681Z,101317.56
2023-05-09T01:03:18.475Z,101314.81
2023-05-09T01:05:20.347Z,101310.38
2023-05-09T01:07:24.989Z,101319.50
2023-05-09T01:09:43.633Z,101312.28
2023-05-09T01:12:11.223Z,101310.59
2023-05-09T01:14:12.584Z,101314.22
2023-05-09T01:16:15.432Z,101309.75
2023-05-09T01:18:26.405Z,101298.97
2023-05-09T01:20:38.114Z,101305.06
2023-05-09T01:22:43.171Z,101303.19
2023-05-09T01:24:50.832Z,101295.75
2023-05-09T01:27:12.271Z,101292.16
2023-05-09T01:29:25.921Z,101289.41
2023-05-09T01:31:28.488Z,101286.66
2023-05-09T01:33:32.764Z,101282.19
2023-05-09T01:35:36.161Z,101270.34
2023-05-09T01:37:39.790Z,101263.97
2023-05-09T01:39:44.911Z,101266.72
2023-05-09T01:41:46.307Z,101262.31
2023-05-09T01:43:49.504Z,101267.81
2023-05-09T01:45:51.798Z,101268.66
2023-05-09T01:47:53.883Z,101263.97
2023-05-09T01:49:56.259Z,101264.84
2023-05-09T01:51:58.305Z,101261.22
2023-05-09T01:54:00.317Z,101257.41
2023-05-09T01:56:03.038Z,101262.09
2023-05-09T01:58:05.653Z,101262.09
2023-05-09T02:00:08.977Z,101255.72
2023-05-09T02:02:11.012Z,101259.56
2023-05-09T02:04:13.479Z,101260.38
2023-05-09T02:06:16.149Z,101256.81
2023-05-09T02:08:21.104Z,101254.88
2023-05-09T02:10:22.777Z,101246.84
2023-05-09T02:12:24.521Z,101249.59
2023-05-09T02:14:26.688Z,101246.00
2023-05-09T02:16:28.433Z,101244.91
2023-05-09T02:18:29.889Z,101243.03
2023-05-09T02:20:31.557Z,101240.28
2023-05-09T02:22:33.033Z,101244.09
2023-05-09T02:24:35.155Z,101245.78
2023-05-09T02:26:36.713Z,101242.16
2023-05-09T02:28:38.833Z,101246.84
2023-05-09T02:30:42.125Z,101248.78
2023-05-09T02:32:45.492Z,101242.63
2023-05-09T02:34:48.181Z,101242.41
2023-05-09T02:36:49.675Z,101237.97
2023-05-09T02:38:51.482Z,101241.56
2023-05-09T02:40:53.034Z,101238.81
2023-05-09T02:42:54.579Z,101240.50
2023-05-09T02:44:56.443Z,101236.88
2023-05-09T02:46:57.837Z,101234.13
2023-05-09T02:48:59.447Z,101236.88
2023-05-09T02:51:00.879Z,101239.63
2023-05-09T02:53:02.283Z,101237.97
2023-05-09T02:55:03.986Z,101225.88
2023-05-09T02:57:05.694Z,101230.53
2023-05-09T02:59:07.294Z,101226.09
2023-05-09T03:01:08.771Z,101225.25
2023-05-09T03:03:10.804Z,101228.84
2023-05-09T03:05:12.873Z,101222.75
2023-05-09T03:07:17.167Z,101230.78
2023-05-09T03:09:18.541Z,101229.94
2023-05-09T03:11:20.278Z,101221.69
2023-05-09T03:13:21.796Z,101219.75
2023-05-09T03:15:23.273Z,101226.09
2023-05-09T03:17:25.198Z,101224.19
2023-05-09T03:19:26.652Z,101224.19
2023-05-09T03:21:28.033Z,101221.44
2023-05-09T03:23:29.432Z,101229.94
2023-05-09T03:25:31.072Z,101218.91
2023-05-09T03:27:32.477Z,101220.81
2023-05-09T03:29:34.050Z,101215.31
2023-05-09T03:31:36.040Z,101216.41
2023-05-09T03:33:37.595Z,101214.47
2023-05-09T03:35:39.158Z,101208.97
2023-05-09T03:37:40.889Z,101216.16
2023-05-09T03:39:42.386Z,101214.25
2023-05-09T03:41:44.177Z,101215.06
2023-05-09T03:43:45.852Z,101203.22
2023-05-09T03:45:47.418Z,101205.16
2023-05-09T03:47:48.817Z,101207.03
2023-05-09T03:49:50.290Z,101208.13
2023-05-09T03:51:51.729Z,101210.88
2023-05-09T03:53:58.958Z,101203.44
2023-05-09T03:56:00.649Z,101198.19
2023-05-09T03:58:02.863Z,101192.66
2023-05-09T04:00:06.140Z,101189.09
2023-05-09T04:02:09.311Z,101192.66
2023-05-09T04:04:10.752Z,101202.84
2023-05-09T04:06:12.409Z,101187.16
2023-05-09T04:08:13.944Z,101187.16
2023-05-09T04:10:15.908Z,101190.97
2023-05-09T04:12:17.396Z,101186.31
2023-05-09T04:14:18.776Z,101189.09
2023-05-09T04:16:20.210Z,101188.22
2023-05-09T04:18:22.112Z,101186.53
2023-05-09T04:20:23.539Z,101180.19
2023-05-09T04:22:25.079Z,101185.69
2023-05-09T04:24:26.681Z,101178.50
2023-05-09T04:26:28.202Z,101182.09
2023-05-09T04:28:29.665Z,101182.94
2023-05-09T04:30:31.427Z,101174.69
2023-05-09T04:32:33.144Z,101179.59
2023-05-09T04:34:34.776Z,101165.56
2023-05-09T04:36:36.278Z,101178.50
2023-05-09T04:38:37.868Z,101164.72
2023-05-09T04:40:39.411Z,101165.81
2023-05-09T04:42:41.377Z,101156.69
2023-05-09T04:44:43.182Z,101140.72
2023-05-09T04:46:44.815Z,101157.78
2023-05-09T04:48:46.272Z,101159.66
2023-05-09T04:50:48.582Z,101159.66
2023-05-09T04:52:50.207Z,101155.25
2023-05-09T04:54:51.635Z,101158.00
2023-05-09T04:56:53.228Z,101151.63
2023-05-09T04:58:57.760Z,101151.41
2023-05-09T05:00:59.200Z,101150.56
2023-05-09T05:03:00.755Z,101145.28
2023-05-09T05:05:11.684Z,101140.63
2023-05-09T05:07:13.924Z,101143.38
2023-05-09T05:09:15.355Z,101137.03
2023-05-09T05:11:18.104Z,101134.50
2023-05-09T05:13:21.409Z,101140.03
2023-05-09T05:15:23.158Z,101135.56
2023-05-09T05:17:24.876Z,101128.41
2023-05-09T05:19:26.466Z,101131.16
2023-05-09T05:21:27.867Z,101125.66
2023-05-09T05:23:29.333Z,101122.91
2023-05-09T05:25:31.336Z,101122.91
2023-05-09T05:27:32.808Z,101118.22
2023-05-09T05:29:34.245Z,101117.38
2023-05-09T05:31:36.276Z,101112.94
2023-05-09T05:33:38.216Z,101106.38
2023-05-09T05:35:39.685Z,101110.19
2023-05-09T05:37:41.196Z,101107.44
2023-05-09T05:39:42.598Z,101113.78
2023-05-09T05:41:44.045Z,101106.84
2023-05-09T05:43:45.571Z,101105.16
2023-05-09T05:45:47.073Z,101115.09
2023-05-09T05:47:48.518Z,101109.59
2023-05-09T05:49:50.608Z,101104.06
2023-05-09T05:51:52.110Z,101097.72
2023-05-09T05:53:53.587Z,101094.72
2023-05-09T05:55:55.085Z,101094.97
2023-05-09T05:57:56.553Z,101085.88
2023-05-09T05:59:58.158Z,101087.78
2023-05-09T06:01:59.766Z,101083.09
2023-05-09T06:04:01.391Z,101085.03
2023-05-09T06:06:03.025Z,101081.41
2023-05-09T06:08:04.719Z,101074.25
2023-05-09T06:10:07.070Z,101082.50
2023-05-09T06:12:08.956Z,101078.91
2023-05-09T06:14:10.384Z,101071.50
2023-05-09T06:16:19.223Z,101077.25
2023-05-09T06:18:21.885Z,101078.91
2023-05-09T06:20:23.360Z,101069.81
2023-05-09T06:22:24.873Z,101065.13
2023-05-09T06:24:35.882Z,101061.53
2023-05-09T06:26:40.661Z,101068.97
2023-05-09T06:28:42.066Z,101065.34
2023-05-09T06:30:43.817Z,101061.78
2023-05-09T06:32:45.315Z,101060.94
2023-05-09T06:34:46.833Z,101054.56
2023-05-09T06:36:48.333Z,101054.78
2023-05-09T06:38:49.779Z,101057.53
2023-05-09T06:40:51.410Z,101042.06
2023-05-09T06:42:53.030Z,101043.16
2023-05-09T06:44:54.523Z,101044.22
2023-05-09T06:46:58.835Z,101043.16
2023-05-09T06:49:01.910Z,101038.50
2023-05-09T06:51:03.509Z,101044.81
2023-05-09T06:53:05.102Z,101042.06
2023-05-09T06:55:06.903Z,101037.66
2023-05-09T06:57:08.367Z,101034.03
2023-05-09T06:59:13.716Z,101042.31
2023-05-09T07:01:15.489Z,101027.94
2023-05-09T07:03:17.214Z,101037.25
2023-05-09T07:05:18.880Z,101028.16
2023-05-09T07:07:20.473Z,101027.56
2023-05-09T07:09:23.662Z,101014.03
2023-05-09T07:11:25.160Z,101017.63
2023-05-09T07:13:26.768Z,101011.28
2023-05-09T07:15:40.684Z,101013.41
2023-05-09T07:17:43.851Z,101006.00
2023-05-09T07:19:45.381Z,100996.06
2023-05-09T07:21:46.788Z,100995.22
2023-05-09T07:23:48.179Z,100993.53
2023-05-09T07:25:49.626Z,100996.28
2023-05-09T07:27:51.341Z,100987.22
2023-05-09T07:29:52.885Z,100990.19
2023-05-09T07:31:54.383Z,100989.34
2023-05-09T07:33:55.920Z,100982.75
2023-05-09T07:36:00.364Z,100987.44
2023-05-09T07:38:01.872Z,100982.16
2023-05-09T07:40:05.710Z,100978.31
2023-05-09T07:42:08.324Z,100972.81
2023-05-09T07:44:09.901Z,100981.06
2023-05-09T07:46:11.390Z,100972.00
2023-05-09T07:48:13.211Z,100973.03
2023-05-09T07:50:14.824Z,100973.03
2023-05-09T07:52:17.641Z,100953.25
2023-05-09T07:54:19.079Z,100965.88
2023-05-09T07:56:21.287Z,100966.13
2023-05-09T07:58:22.859Z,100973.53
2023-05-09T08:00:24.776Z,100959.50
2023-05-09T08:02:26.324Z,100963.38
2023-05-09T08:04:28.026Z,100964.19
2023-05-09T08:06:29.525Z,100963.38
2023-05-09T08:08:31.002Z,100973.28
2023-05-09T08:10:33.685Z,100967.78
2023-05-09T08:12:35.285Z,100960.63
2023-05-09T08:14:36.695Z,100954.25
2023-05-09T08:16:38.210Z,100954.25
2023-05-09T08:18:39.674Z,100950.66
2023-05-09T08:20:41.461Z,100955.34
2023-05-09T08:22:43.038Z,100953.41
2023-05-09T08:24:45.466Z,100944.34
2023-05-09T08:26:47.076Z,100948.16
2023-05-09T08:28:49.279Z,100938.81
2023-05-09T08:30:51.427Z,100939.88
2023-05-09T08:32:52.996Z,100933.31
2023-05-09T08:34:54.440Z,100934.16
2023-05-09T08:36:56.003Z,100928.63
2023-05-09T08:38:57.421Z,100925.06
2023-05-09T08:41:02.323Z,100923.38
2023-05-09T08:43:06.086Z,100918.69
2023-05-09T08:45:09.805Z,100909.59
2023-05-09T08:47:11.673Z,100916.19
2023-05-09T08:49:13.261Z,100908.97
2023-05-09T08:51:16.068Z,100903.47
2023-05-09T08:53:19.741Z,100914.47
2023-05-09T08:55:21.637Z,100898.81
2023-05-09T08:57:23.234Z,100907.31
2023-05-09T08:59:24.868Z,100902.66
2023-05-09T09:01:27.703Z,100903.47
2023-05-09T09:03:29.804Z,100912.59
2023-05-09T09:07:36.854Z,100896.06
2023-05-09T09:09:39.404Z,100893.56
2023-05-09T09:11:42.101Z,100897.13
2023-05-09T09:13:44.013Z,100890.81
2023-05-09T09:15:46.468Z,100894.63
2023-05-09T09:17:51.012Z,100887.19
2023-05-09T09:19:55.532Z,100883.63
2023-05-09T09:21:59.063Z,100886.38
2023-05-09T09:24:00.893Z,100878.09
2023-05-09T09:26:04.406Z,100889.94
2023-05-09T09:28:05.967Z,100892.69
2023-05-09T09:30:11.407Z,100887.19
2023-05-09T09:32:13.029Z,100887.19
2023-05-09T09:34:20.619Z,100887.19
2023-05-09T09:36:29.110Z,100882.78
2023-05-09T09:38:39.445Z,100880.03
2023-05-09T09:40:41.406Z,100885.53
2023-05-09T09:42:43.141Z,100884.69
2023-05-09T09:44:44.751Z,100878.34
2023-05-09T09:46:48.478Z,100878.34
2023-05-09T09:48:52.816Z,100877.50
2023-05-09T09:50:55.960Z,100876.66
2023-05-09T09:52:57.484Z,100883.03
2023-05-09T09:54:59.944Z,100859.66
2023-05-09T09:57:01.941Z,100850.03
2023-05-09T09:59:13.969Z,100878.34
2023-05-09T10:01:16.656Z,100870.91
2023-05-09T10:03:18.324Z,100868.41
2023-05-09T10:05:27.145Z,100868.41
2023-05-09T10:07:33.555Z,100867.56
2023-05-09T10:09:35.854Z,100867.56
2023-05-09T10:11:37.419Z,100863.13
2023-05-09T10:13:38.976Z,100861.22
2023-05-09T10:15:52.368Z,100854.88
2023-05-09T10:17:56.706Z,100854.88
2023-05-09T10:20:00.139Z,100856.56
2023-05-09T10:22:11.906Z,100851.88
2023-05-09T10:24:13.547Z,100851.06
2023-05-09T10:26:14.952Z,100851.06
2023-05-09T10:28:18.294Z,100846.59
2023-05-09T10:30:23.132Z,100841.97
2023-05-09T10:32:27.872Z,100841.09
2023-05-09T10:34:31.154Z,100843.03
2023-05-09T10:36:32.923Z,100836.69
2023-05-09T10:38:34.866Z,100832.25
2023-05-09T10:40:36.300Z,100831.44
2023-05-09T10:42:37.984Z,100830.34
2023-05-09T10:44:39.665Z,100824.81
2023-05-09T10:46:41.718Z,100837.53
2023-05-09T10:48:43.699Z,100829.25
2023-05-09T10:50:46.425Z,100829.25
2023-05-09T10:53:03.783Z,100826.50
2023-05-09T10:55:09.148Z,100827.34
2023-05-09T10:57:10.687Z,100826.50
2023-05-09T10:59:32.409Z,100817.44
2023-05-09T11:01:37.281Z,100810.25
2023-05-09T11:04:05.986Z,100814.53
2023-05-09T11:06:07.496Z,100814.38
2023-05-09T11:08:18.823Z,100807.50
2023-05-09T11:10:20.257Z,100808.66
2023-05-09T11:12:23.942Z,100801.81
2023-05-09T11:14:28.938Z,100806.94
2023-05-09T11:16:30.533Z,100799.38
2023-05-09T11:18:32.768Z,100797.09
2023-05-09T11:20:35.541Z,100798.03
2023-05-09T11:22:41.362Z,100799.94
2023-05-09T11:24:54.228Z,100797.66
2023-05-09T11:26:56.193Z,100805.50
2023-05-09T11:28:59.365Z,100779.06
2023-05-09T11:31:09.536Z,100792.34
2023-05-09T11:33:26.435Z,100803.56
2023-05-09T11:35:28.040Z,100799.13
2023-05-09T11:37:30.938Z,100794.31
2023-05-09T11:39:32.430Z,100793.72
2023-05-09T11:41:42.271Z,100791.44
2023-05-09T11:43:46.469Z,100787.00
2023-05-09T11:45:48.009Z,100788.25
2023-05-09T11:47:50.825Z,100782.16
2023-05-09T11:49:52.298Z,100790.41
2023-05-09T11:51:53.879Z,100786.19
2023-05-09T11:53:55.474Z,100780.94
2023-05-09T11:55:56.978Z,100785.81
2023-05-09T11:57:58.750Z,100782.69
2023-05-09T12:00:01.318Z,100782.09
2023-05-09T12:02:06.534Z,100775.28
2023-05-09T12:04:08.787Z,100781.63
2023-05-09T12:06:13.998Z,100778.88
2023-05-09T12:08:16.157Z,100778.03
2023-05-09T12:10:22.828Z,100785.88
2023-05-09T12:12:24.462Z,100785.66
2023-05-09T12:14:26.600Z,100785.06
2023-05-09T12:16:28.233Z,100788.03
2023-05-09T12:18:29.730Z,100779.44
2023-05-09T12:20:41.199Z,100781.78
2023-05-09T12:22:43.406Z,100784.97
2023-05-09T12:24:44.843Z,100781.63
2023-05-09T12:26:48.118Z,100779.34
2023-05-09T12:28:50.063Z,100782.53
2023-05-09T12:30:52.431Z,100779.63
2023-05-09T12:32:54.115Z,100779.25
2023-05-09T12:34:55.644Z,100780.53
2023-05-09T12:36:58.459Z,100769.16
2023-05-09T12:38:59.950Z,100774.06
2023-05-09T12:41:03.859Z,100778.69
2023-05-09T12:43:05.736Z,100774.25
2023-05-09T12:45:10.744Z,100787.16
2023-05-09T12:47:12.568Z,100781.66
2023-05-09T12:49:21.257Z,100778.91
2023-05-09T12:51:23.247Z,100775.13
2023-05-09T12:53:25.711Z,100776.81
2023-05-09T12:55:27.882Z,100781.44
2023-05-09T12:57:31.447Z,100778.69
2023-05-09T12:59:33.292Z,100772.59
2023-05-09T13:01:35.837Z,100776.41
2023-05-09T13:03:40.304Z,100780.44
2023-05-09T13:05:41.782Z,100778.53
2023-05-09T13:07:44.470Z,100776.63
2023-05-09T13:09:57.023Z,100787.84
2023-05-09T13:11:58.559Z,100783.63
2023-05-09T13:14:00.390Z,100771.44
2023-05-09T13:16:03.728Z,100771.63
2023-05-09T13:18:05.363Z,100772.69
2023-05-09T13:20:07.293Z,100769.13
2023-05-09T13:22:10.465Z,100761.94
2023-05-09T13:24:13.749Z,100759.41
2023-05-09T13:26:15.385Z,100762.63
2023-05-09T13:28:16.916Z,100765.38
2023-05-09T13:30:18.828Z,100765.13
2023-05-09T13:32:20.812Z,100761.97
2023-05-09T13:34:22.525Z,100760.09
2023-05-09T13:36:24.079Z,100768.09
2023-05-09T13:38:25.850Z,100760.47
2023-05-09T13:40:27.454Z,100755.06
2023-05-09T13:42:28.876Z,100761.59
2023-05-09T13:44:30.323Z,100762.06
2023-05-09T13:46:31.823Z,100760.59
2023-05-09T13:48:33.278Z,100756.88
2023-05-09T13:50:34.717Z,100758.75
2023-05-09T13:52:36.341Z,100739.84
2023-05-09T13:54:37.815Z,100750.97
2023-05-09T13:56:39.763Z,100746.56
2023-05-09T13:58:41.346Z,100748.06
2023-05-09T14:00:43.116Z,100746.84
2023-05-09T14:02:44.701Z,100744.09
2023-05-09T14:04:46.178Z,100744.31
2023-05-09T14:06:48.298Z,100742.00
2023-05-09T14:08:49.870Z,100742.91
2023-05-09T14:10:51.365Z,100736.81
2023-05-09T14:12:53.415Z,100735.97
2023-05-09T14:14:54.898Z,100738.94
2023-05-09T14:16:56.715Z,100736.63
2023-05-09T14:18:58.443Z,100741.28
2023-05-09T14:20:59.895Z,100739.59
2023-05-09T14:23:01.568Z,100738.75
2023-05-09T14:25:03.054Z,100739.38
2023-05-09T14:27:04.498Z,100741.28
2023-05-09T14:29:06.385Z,100737.69
2023-05-09T14:31:08.074Z,100733.66
2023-05-09T14:33:09.593Z,100729.66
2023-05-09T14:35:11.279Z,100728.38
2023-05-09T14:37:15.628Z,100728.81
2023-05-09T14:39:17.280Z,100733.00
2023-05-09T14:41:21.328Z,100735.50
2023-05-09T14:43:23.380Z,100700.63
2023-05-09T14:45:25.260Z,100728.97
2023-05-09T14:47:26.818Z,100728.38
2023-05-09T14:49:28.596Z,100727.94
2023-05-09T14:51:31.417Z,100728.63
2023-05-09T14:53:35.419Z,100726.94
2023-05-09T14:55:37.334Z,100720.00
2023-05-09T14:57:38.870Z,100727.16
2023-05-09T14:59:40.294Z,100719.78
2023-05-09T15:01:41.952Z,100720.63
2023-05-09T15:03:43.521Z,100724.19
2023-05-09T15:05:45.048Z,100721.66
2023-05-09T15:07:46.556Z,100714.13
2023-05-09T15:09:48.228Z,100714.34
2023-05-09T15:11:49.732Z,100715.84
2023-05-09T15:13:53.116Z,100716.72
2023-05-09T15:15:54.696Z,100718.00
2023-05-09T15:17:56.717Z,100715.72
2023-05-09T15:19:58.234Z,100717.19
2023-05-09T15:21:59.944Z,100707.50
2023-05-09T15:24:02.224Z,100706.06
2023-05-09T15:26:04.078Z,100713.06
2023-05-09T15:28:06.947Z,100718.53
2023-05-09T15:30:08.838Z,100719.38
2023-05-09T15:32:10.327Z,100717.94
2023-05-09T15:34:11.798Z,100715.19
2023-05-09T15:36:13.537Z,100709.06
2023-05-09T15:38:15.449Z,100709.91
2023-05-09T15:40:17.201Z,100709.28
2023-05-09T15:42:19.262Z,100714.16
2023-05-09T15:44:20.886Z,100705.28
2023-05-09T15:46:22.331Z,100707.19
2023-05-09T15:48:24.777Z,100705.06
2023-05-09T15:50:26.324Z,100707.81
2023-05-09T15:52:27.876Z,100700.44
2023-05-09T15:54:29.650Z,100703.81
2023-05-09T15:56:31.210Z,100696.00
2023-05-09T15:58:32.762Z,100697.03
2023-05-09T16:00:34.420Z,100695.78
2023-05-09T16:02:36.154Z,100691.94
2023-05-09T16:04:38.392Z,100691.13
2023-05-09T16:06:40.500Z,100685.03
2023-05-09T16:08:42.036Z,100683.34
2023-05-09T16:10:43.751Z,100679.53
2023-05-09T16:12:45.313Z,100684.16
2023-05-09T16:14:47.740Z,100677.03
2023-05-09T16:16:50.493Z,100681.88
2023-05-09T16:18:52.088Z,100686.53
2023-05-09T16:20:53.617Z,100687.56
2023-05-09T16:22:55.253Z,100691.16
2023-05-09T16:24:56.803Z,100688.41
2023-05-09T16:26:58.543Z,100686.53
2023-05-09T16:29:01.177Z,100681.88
2023-05-09T16:31:04.820Z,100682.72
2023-05-09T16:33:06.604Z,100681.03
2023-05-09T16:35:08.358Z,100680.63
2023-05-09T16:37:09.877Z,100688.25
2023-05-09T16:39:11.423Z,100692.03
2023-05-09T16:41:13.089Z,100695.00
2023-05-09T16:43:16.382Z,100705.13
2023-05-09T16:45:17.876Z,100691.25
2023-05-09T16:47:19.347Z,100687.66
2023-05-09T16:49:20.824Z,100694.00
2023-05-09T16:51:22.338Z,100689.78
2023-05-09T16:53:24.492Z,100691.28
2023-05-09T16:55:27.312Z,100696.97
2023-05-09T16:57:28.959Z,100697.41
2023-05-09T16:59:30.772Z,100695.50
2023-05-09T17:01:32.678Z,100702.44
2023-05-09T17:03:34.261Z,100691.47
2023-05-09T17:05:35.727Z,100704.97
2023-05-09T17:07:37.228Z,100692.69
2023-05-09T17:09:38.869Z,100694.16
2023-05-09T17:11:40.311Z,100700.25
2023-05-09T17:13:42.964Z,100704.91
2023-05-09T17:15:44.394Z,100702.56
2023-05-09T17:17:47.386Z,100698.75
2023-05-09T17:19:48.827Z,100697.06
2023-05-09T17:21:50.297Z,100694.56
2023-05-09T17:23:53.901Z,100696.69
2023-05-09T17:25:55.568Z,100693.13
2023-05-09T17:27:57.164Z,100694.16
2023-05-09T17:29:58.630Z,100692.88
2023-05-09T17:32:03.177Z,100701.94
2023-05-09T17:34:05.673Z,100691.81
2023-05-09T17:36:07.422Z,100692.88
2023-05-09T17:38:08.988Z,100701.94
2023-05-09T17:40:10.694Z,100696.47
2023-05-09T17:42:12.664Z,100697.72
2023-05-09T17:44:14.497Z,100688.25
2023-05-09T17:46:16.056Z,100694.97
2023-05-09T17:48:18.185Z,100688.41
2023-05-09T17:50:20.778Z,100692.63
2023-05-09T17:52:22.328Z,100692.41
2023-05-09T17:54:26.720Z,100694.09
2023-05-09T17:56:28.193Z,100690.72
2023-05-09T17:58:29.972Z,100692.41
2023-05-09T18:00:32.422Z,100688.81
2023-05-09T18:02:33.940Z,100682.50
2023-05-09T18:04:35.808Z,100678.09
2023-05-09T18:06:37.306Z,100671.97
2023-05-09T18:08:38.698Z,100673.03
2023-05-09T18:10:41.114Z,100675.38
2023-05-09T18:12:45.093Z,100668.44
2023-05-09T18:14:47.675Z,100664.84
2023-05-09T18:16:49.390Z,100673.72
2023-05-09T18:18:50.895Z,100662.97
2023-05-09T18:20:52.315Z,100658.53
2023-05-09T18:22:54.374Z,100665.94
2023-05-09T18:24:56.135Z,100659.81
2023-05-09T18:26:57.962Z,100663.41
2023-05-09T18:28:59.371Z,100663.41
2023-05-09T18:31:01.315Z,100657.94
2023-05-09T18:33:03.084Z,100671.84
2023-05-09T18:35:05.560Z,100666.38
2023-05-09T18:37:07.588Z,100675.66
2023-05-09T18:39:11.593Z,100678.59
2023-05-09T18:41:13.719Z,100678.22
2023-05-09T18:43:16.955Z,100686.03
2023-05-09T18:45:18.569Z,100684.13
2023-05-09T18:47:20.078Z,100687.47
2023-05-09T18:49:24.779Z,100690.22
2023-05-09T18:51:26.342Z,100688.09
2023-05-09T18:53:28.808Z,100690.84
2023-05-09T18:55:30.664Z,100691.50
2023-05-09T18:57:33.880Z,100691.72
2023-05-09T18:59:35.416Z,100689.19
2023-05-09T19:01:37.856Z,100702.91
2023-05-09T19:03:45.755Z,100698.28
2023-05-09T19:05:47.480Z,100712.81
2023-05-09T19:07:48.991Z,100724.16
2023-05-09T19:09:50.603Z,100723.09
2023-05-09T19:11:52.311Z,100728.59
2023-05-09T19:13:54.139Z,100726.69
2023-05-09T19:15:55.793Z,100726.91
2023-05-09T19:17:57.447Z,100728.81
2023-05-09T19:20:00.924Z,100725.44
2023-05-09T19:22:02.487Z,100732.22
2023-05-09T19:24:04.685Z,100728.81
2023-05-09T19:26:06.214Z,100726.31
2023-05-09T19:28:07.833Z,100732.00
2023-05-09T19:30:09.499Z,100735.19
2023-05-09T19:32:11.319Z,100739.00
2023-05-09T19:34:13.540Z,100742.78
2023-05-09T19:36:15.299Z,100741.94
2023-05-09T19:38:17.412Z,100733.06
2023-05-09T19:40:19.208Z,100737.53
2023-05-09T19:42:21.453Z,100731.22
2023-05-09T19:44:22.922Z,100727.81
2023-05-09T19:46:24.662Z,100728.88
2023-05-09T19:48:26.518Z,100727.41
2023-05-09T19:50:28.049Z,100732.06
2023-05-09T19:52:32.308Z,100727.63
2023-05-09T19:54:33.790Z,100734.97
2023-05-09T19:56:35.200Z,100742.81
2023-05-09T19:58:36.772Z,100732.06
2023-05-09T20:00:38.872Z,100741.97
2023-05-09T20:02:40.607Z,100738.78
2023-05-09T20:04:46.951Z,100710.63
2023-05-09T20:06:48.657Z,100742.59
2023-05-09T20:08:51.999Z,100744.28
2023-05-09T20:10:53.918Z,100733.75
2023-05-09T20:12:58.135Z,100738.78
2023-05-09T20:14:59.590Z,100745.75
2023-05-09T20:17:01.520Z,100740.66
2023-05-09T20:19:05.144Z,100740.03
2023-05-09T20:21:09.708Z,100733.09
2023-05-09T20:23:11.285Z,100729.69
2023-05-09T20:25:13.557Z,100737.25
2023-05-09T20:27:14.971Z,100734.91
2023-05-09T20:29:16.484Z,100739.94
2023-05-09T20:31:17.925Z,100735.94
2023-05-09T20:33:19.365Z,100748.38
2023-05-09T20:35:20.825Z,100751.50
2023-05-09T20:37:22.262Z,100745.78
2023-05-09T20:39:24.706Z,100750.84
2023-05-09T20:41:26.369Z,100756.94
2023-05-09T20:43:28.426Z,100756.94
2023-05-09T20:45:30.945Z,100753.13
2023-05-09T20:47:32.531Z,100749.34
2023-05-09T20:49:34.011Z,100755.44
2023-05-09T20:51:35.477Z,100755.44
2023-05-09T20:53:37.700Z,100753.56
2023-05-09T20:55:39.334Z,100749.75
2023-05-09T20:57:40.789Z,100751.22
2023-05-09T20:59:42.469Z,100739.19
2023-05-09T21:01:44.012Z,100747.19
2023-05-09T21:03:45.651Z,100753.50
2023-05-09T21:05:47.172Z,100774.63
2023-05-09T21:07:48.724Z,100767.66
2023-05-09T21:09:50.821Z,100770.00
2023-05-09T21:11:52.459Z,100770.44
2023-05-09T21:13:54.097Z,100767.06
2023-05-09T21:15:55.691Z,100779.28
2023-05-09T21:17:57.224Z,100766.03
2023-05-09T21:19:58.766Z,100770.69
2023-05-09T21:22:00.377Z,100769.84
2023-05-09T21:24:08.843Z,100771.72
2023-05-09T21:26:10.348Z,100766.25
2023-05-09T21:28:11.861Z,100782.47
2023-05-09T21:30:13.426Z,100789.00
2023-05-09T21:32:16.632Z,100805.66
2023-05-09T21:34:18.805Z,100811.13
2023-05-09T21:36:20.285Z,100829.44
2023-05-09T21:38:21.859Z,100824.22
2023-05-09T21:40:23.331Z,100843.66
2023-05-09T21:42:24.819Z,100846.38
2023-05-09T21:44:26.355Z,100851.66
2023-05-09T21:46:27.937Z,100848.06
2023-05-09T21:48:29.535Z,100839.25
2023-05-09T21:50:31.214Z,100822.16
2023-05-09T21:52:32.856Z,100816.06
2023-05-09T21:54:34.298Z,100820.94
2023-05-09T21:56:35.808Z,100816.06
2023-05-09T21:58:37.575Z,100813.75
2023-05-09T22:00:38.958Z,100828.53
2023-05-09T22:02:42.533Z,100827.47
2023-05-09T22:04:44.210Z,100828.75
2023-05-09T22:06:45.629Z,100810.84
2023-05-09T22:08:47.290Z,100808.94
2023-05-09T22:10:48.873Z,100833.38
2023-05-09T22:12:50.309Z,100832.72
2023-05-09T22:14:56.277Z,100836.06
2023-05-09T22:16:58.742Z,100846.81
2023-05-09T22:19:00.156Z,100853.94
2023-05-09T22:21:01.699Z,100852.69
2023-05-09T22:23:03.418Z,100848.44
2023-05-09T22:25:05.031Z,100848.00
2023-05-09T22:27:06.871Z,100853.25
2023-05-09T22:29:08.587Z,100846.72
2023-05-09T22:31:10.529Z,100846.72
2023-05-09T22:33:12.050Z,100840.19
2023-05-09T22:35:13.625Z,100843.75
2023-05-09T22:37:15.210Z,100847.13
2023-05-09T22:39:16.822Z,100848.81
2023-05-09T22:41:18.381Z,100861.47
2023-05-09T22:43:20.361Z,100847.75
2023-05-09T22:45:22.166Z,100850.28
2023-05-09T22:47:23.639Z,100853.84
2023-05-09T22:49:25.138Z,100855.53
2023-05-09T22:51:27.705Z,100854.47
2023-05-09T22:53:29.444Z,100857.22
2023-05-09T22:55:30.912Z,100851.72
2023-05-09T22:57:32.453Z,100857.84
2023-05-09T22:59:34.389Z,100847.94
2023-05-09T23:01:36.322Z,100854.25
2023-05-09T23:03:38.095Z,100852.16
2023-05-09T23:05:39.685Z,100858.47
2023-05-09T23:07:41.364Z,100859.09
2023-05-09T23:09:42.921Z,100860.97
2023-05-09T23:11:44.358Z,100855.28
2023-05-09T23:13:45.777Z,100861.84
2023-05-09T23:15:48.105Z,100858.88
2023-05-09T23:17:49.661Z,100861.41
2023-05-09T23:19:51.194Z,100849.78